createdAt,value
2017-09-06T00:01:34.788Z,1.70
2017-09-06T00:04:02.300Z,2.00
2017-09-06T00:06:29.850Z,2.23
2017-09-06T00:08:57.399Z,1.97
2017-09-06T00:11:24.997Z,2.70
2017-09-06T00:13:52.528Z,2.63
2017-09-06T00:16:20.070Z,2.73
2017-09-06T00:18:47.649Z,2.80
2017-09-06T00:21:15.280Z,1.93
2017-09-06T00:23:42.815Z,2.37
2017-09-06T00:26:10.326Z,2.27
2017-09-06T00:28:37.861Z,2.00
2017-09-06T00:31:05.419Z,2.00
2017-09-06T00:33:32.963Z,1.97
2017-09-06T00:36:00.502Z,1.80
2017-09-06T00:38:28.057Z,2.07
2017-09-06T00:40:55.594Z,1.70
2017-09-06T00:43:23.121Z,1.43
2017-09-06T00:45:50.787Z,1.73
2017-09-06T00:48:18.344Z,1.60
2017-09-06T00:50:45.897Z,1.70
2017-09-06T00:53:13.443Z,1.80
2017-09-06T00:55:41.027Z,1.57
2017-09-06T00:58:08.704Z,1.80
2017-09-06T01:00:36.250Z,1.60
2017-09-06T01:03:03.809Z,1.50
2017-09-06T01:05:31.373Z,1.57
2017-09-06T01:07:58.927Z,1.57
2017-09-06T01:10:26.497Z,1.57
2017-09-06T01:12:54.044Z,1.60
2017-09-06T01:15:21.592Z,1.60
2017-09-06T01:17:49.159Z,1.40
2017-09-06T01:20:16.714Z,1.63
2017-09-06T01:22:44.272Z,1.40
2017-09-06T01:25:11.840Z,1.20
2017-09-06T01:27:39.394Z,1.50
2017-09-06T01:30:06.983Z,1.90
2017-09-06T01:32:34.550Z,1.50
2017-09-06T01:35:02.113Z,1.63
2017-09-06T01:37:29.645Z,1.30
2017-09-06T01:39:57.207Z,1.90
2017-09-06T01:42:24.767Z,1.47
2017-09-06T01:44:52.335Z,1.73
2017-09-06T01:47:19.869Z,1.77
2017-09-06T01:49:47.471Z,1.50
2017-09-06T01:52:14.988Z,1.30
2017-09-06T01:54:42.532Z,1.47
2017-09-06T01:57:10.129Z,1.47
2017-09-06T01:59:37.686Z,1.43
2017-09-06T02:02:05.212Z,1.73
2017-09-06T02:04:32.781Z,1.60
2017-09-06T02:07:01.357Z,1.53
2017-09-06T02:09:28.891Z,1.37
2017-09-06T02:11:56.442Z,1.57
2017-09-06T02:14:23.951Z,1.87
2017-09-06T02:16:51.485Z,2.00
2017-09-06T02:19:19.011Z,1.40
2017-09-06T02:21:46.556Z,1.53
2017-09-06T02:24:14.076Z,1.60
2017-09-06T02:26:41.625Z,1.50
2017-09-06T02:29:09.163Z,1.30
2017-09-06T02:31:36.709Z,1.57
2017-09-06T02:34:04.289Z,1.60
2017-09-06T02:36:31.845Z,1.40
2017-09-06T02:38:59.392Z,1.50
2017-09-06T02:41:26.938Z,1.80
2017-09-06T02:43:54.501Z,1.60
2017-09-06T02:46:22.064Z,1.53
2017-09-06T02:48:49.619Z,1.87
2017-09-06T02:51:17.143Z,1.40
2017-09-06T02:53:44.683Z,2.03
2017-09-06T02:56:12.230Z,1.60
2017-09-06T02:58:39.778Z,2.20
2017-09-06T03:01:07.311Z,1.50
2017-09-06T03:03:34.876Z,1.33
2017-09-06T03:06:02.400Z,1.80
2017-09-06T03:08:29.928Z,1.60
2017-09-06T03:10:57.515Z,1.70
2017-09-06T03:13:28.518Z,1.73
2017-09-06T03:15:56.074Z,1.97
2017-09-06T03:18:23.610Z,1.47
2017-09-06T03:20:51.200Z,1.70
2017-09-06T03:23:18.739Z,1.70
2017-09-06T03:25:46.304Z,1.83
2017-09-06T03:28:13.842Z,2.00
2017-09-06T03:30:41.424Z,1.40
2017-09-06T03:33:08.952Z,1.30
2017-09-06T03:35:36.471Z,1.80
2017-09-06T03:38:04.040Z,1.43
2017-09-06T03:40:31.590Z,1.47
2017-09-06T03:42:59.151Z,1.57
2017-09-06T03:45:26.758Z,1.63
2017-09-06T03:47:54.314Z,1.93
2017-09-06T03:50:21.835Z,1.57
2017-09-06T03:52:49.377Z,1.70
2017-09-06T03:55:16.911Z,1.67
2017-09-06T03:57:44.470Z,1.53
2017-09-06T04:00:12.007Z,1.30
2017-09-06T04:02:39.563Z,1.43
2017-09-06T04:05:07.096Z,1.20
2017-09-06T04:07:34.611Z,1.97
2017-09-06T04:10:02.152Z,2.10
2017-09-06T04:12:29.719Z,2.00
2017-09-06T04:14:57.283Z,1.77
2017-09-06T04:17:24.834Z,1.83
2017-09-06T04:19:52.380Z,1.80
2017-09-06T04:22:19.958Z,1.83
2017-09-06T04:24:47.499Z,2.40
2017-09-06T04:27:15.018Z,1.90
2017-09-06T04:29:42.579Z,2.07
2017-09-06T04:32:10.108Z,1.97
2017-09-06T04:34:37.677Z,2.37
2017-09-06T04:37:05.225Z,2.40
2017-09-06T04:39:32.773Z,2.40
2017-09-06T04:42:02.263Z,2.63
2017-09-06T04:44:29.805Z,2.37
2017-09-06T04:46:57.375Z,2.87
2017-09-06T04:49:24.921Z,3.17
2017-09-06T04:51:52.488Z,2.90
2017-09-06T04:54:20.052Z,3.40
2017-09-06T04:56:47.608Z,5.20
2017-09-06T04:59:15.156Z,5.87
2017-09-06T05:01:42.765Z,6.07
2017-09-06T05:04:10.370Z,6.53
2017-09-06T05:06:37.928Z,6.00
2017-09-06T05:09:05.493Z,4.80
2017-09-06T05:11:33.059Z,5.47
2017-09-06T05:14:00.603Z,5.40
2017-09-06T05:16:28.143Z,4.80
2017-09-06T05:18:55.728Z,4.90
2017-09-06T05:21:23.270Z,5.17
2017-09-06T05:23:51.616Z,4.40
2017-09-06T05:26:19.162Z,5.00
2017-09-06T05:28:46.703Z,5.00
2017-09-06T05:31:14.251Z,4.53
2017-09-06T05:33:41.831Z,5.47
2017-09-06T05:36:09.375Z,5.83
2017-09-06T05:38:36.936Z,6.37
2017-09-06T05:41:04.522Z,5.77
2017-09-06T05:43:32.063Z,6.30
2017-09-06T05:45:59.625Z,6.73
2017-09-06T05:48:27.178Z,6.23
2017-09-06T05:50:54.734Z,6.30
2017-09-06T05:53:22.293Z,7.40
2017-09-06T05:55:49.849Z,7.00
2017-09-06T05:58:17.388Z,6.67
2017-09-06T06:00:44.920Z,7.30
2017-09-06T06:03:12.579Z,6.90
2017-09-06T06:05:40.128Z,7.53
2017-09-06T06:08:07.673Z,7.00
2017-09-06T06:10:35.216Z,8.80
2017-09-06T06:13:02.784Z,7.60
2017-09-06T06:15:30.470Z,7.70
2017-09-06T06:17:58.089Z,7.60
2017-09-06T06:20:25.632Z,8.20
2017-09-06T06:22:53.192Z,9.00
2017-09-06T06:25:20.750Z,9.73
2017-09-06T06:27:48.300Z,9.77
2017-09-06T06:30:15.846Z,9.50
2017-09-06T06:32:43.462Z,8.30
2017-09-06T06:35:11.022Z,10.07
2017-09-06T06:37:38.619Z,9.23
2017-09-06T06:40:06.168Z,7.23
2017-09-06T06:42:33.698Z,6.27
2017-09-06T06:45:01.262Z,7.87
2017-09-06T06:47:28.836Z,9.47
2017-09-06T06:49:56.388Z,11.07
2017-09-06T06:52:23.920Z,12.17
2017-09-06T06:54:51.472Z,13.77
2017-09-06T06:57:19.004Z,14.07
2017-09-06T06:59:46.576Z,16.30
2017-09-06T07:02:14.139Z,16.23
2017-09-06T07:04:41.811Z,17.00
2017-09-06T07:07:09.388Z,15.60
2017-09-06T07:09:36.943Z,14.40
2017-09-06T07:12:04.511Z,14.90
2017-09-06T07:14:32.055Z,11.73
2017-09-06T07:16:59.626Z,13.70
2017-09-06T07:19:27.178Z,14.30
2017-09-06T07:21:54.759Z,12.37
2017-09-06T07:24:22.284Z,11.43
2017-09-06T07:26:49.857Z,10.60
2017-09-06T07:29:17.406Z,9.43
2017-09-06T07:31:44.955Z,9.70
2017-09-06T07:34:12.537Z,9.90
2017-09-06T07:36:40.095Z,9.30
2017-09-06T07:39:07.680Z,9.73
2017-09-06T07:41:35.215Z,7.60
2017-09-06T07:44:02.761Z,7.00
2017-09-06T07:46:30.304Z,5.93
2017-09-06T07:48:57.880Z,5.60
2017-09-06T07:51:25.429Z,4.50
2017-09-06T07:53:52.999Z,3.07
2017-09-06T07:56:20.570Z,3.53
2017-09-06T07:58:48.136Z,4.60
2017-09-06T08:01:15.665Z,4.50
2017-09-06T08:03:43.238Z,6.57
2017-09-06T08:06:10.781Z,6.83
2017-09-06T08:08:38.316Z,7.57
2017-09-06T08:11:05.947Z,9.03
2017-09-06T08:13:33.492Z,8.00
2017-09-06T08:16:01.055Z,9.40
2017-09-06T08:18:28.659Z,11.37
2017-09-06T08:20:56.222Z,9.57
2017-09-06T08:23:23.770Z,9.50
2017-09-06T08:25:51.326Z,11.50
2017-09-06T08:28:18.920Z,12.73
2017-09-06T08:30:46.497Z,14.00
2017-09-06T08:33:14.049Z,13.67
2017-09-06T08:35:41.657Z,13.60
2017-09-06T08:38:09.223Z,13.83
2017-09-06T08:40:36.778Z,12.37
2017-09-06T08:43:04.341Z,14.80
2017-09-06T08:45:31.876Z,13.77
2017-09-06T08:47:59.451Z,13.60
2017-09-06T08:50:26.988Z,14.20
2017-09-06T08:52:54.555Z,14.47
2017-09-06T08:55:22.102Z,14.37
2017-09-06T08:57:49.668Z,14.23
2017-09-06T09:00:17.222Z,16.37
2017-09-06T09:02:44.775Z,14.13
2017-09-06T09:05:12.318Z,14.47
2017-09-06T09:07:39.881Z,14.10
2017-09-06T09:10:07.435Z,15.77
2017-09-06T09:12:34.979Z,13.17
2017-09-06T09:15:02.589Z,13.93
2017-09-06T09:17:30.732Z,13.97
2017-09-06T09:19:58.303Z,12.63
2017-09-06T09:22:25.855Z,15.03
2017-09-06T09:24:53.399Z,10.37
2017-09-06T09:27:20.940Z,10.20
2017-09-06T09:29:48.491Z,13.40
2017-09-06T09:32:16.053Z,10.07
2017-09-06T09:34:43.593Z,13.73
2017-09-06T09:37:12.181Z,7.80
2017-09-06T09:39:39.733Z,7.20
2017-09-06T09:42:07.290Z,8.50
2017-09-06T09:44:34.823Z,8.23
2017-09-06T09:47:02.387Z,7.50
2017-09-06T09:49:31.896Z,7.20
2017-09-06T09:51:59.989Z,5.97
2017-09-06T09:54:28.169Z,8.27
2017-09-06T09:56:55.757Z,9.30
2017-09-06T09:59:23.285Z,8.60
2017-09-06T10:01:50.834Z,8.50
2017-09-06T10:04:20.380Z,7.67
2017-09-06T10:06:47.966Z,5.50
2017-09-06T10:09:15.522Z,6.63
2017-09-06T10:11:43.057Z,5.00
2017-09-06T10:14:10.603Z,5.53
2017-09-06T10:16:38.174Z,4.20
2017-09-06T10:19:05.758Z,4.90
2017-09-06T10:21:33.292Z,3.17
2017-09-06T10:24:00.843Z,3.50
2017-09-06T10:26:28.389Z,3.70
2017-09-06T10:28:55.937Z,3.33
2017-09-06T10:31:23.471Z,4.47
2017-09-06T10:33:51.783Z,3.70
2017-09-06T10:36:19.319Z,2.87
2017-09-06T10:38:47.170Z,3.90
2017-09-06T10:41:14.754Z,5.13
2017-09-06T10:43:42.289Z,4.67
2017-09-06T10:46:09.848Z,5.20
2017-09-06T10:48:37.379Z,3.60
2017-09-06T10:51:04.952Z,4.33
2017-09-06T10:53:32.517Z,5.70
2017-09-06T10:56:00.086Z,3.47
2017-09-06T10:58:28.594Z,3.53
2017-09-06T11:00:56.154Z,3.10
2017-09-06T11:03:23.696Z,3.30
2017-09-06T11:05:51.294Z,2.97
2017-09-06T11:08:18.836Z,3.17
2017-09-06T11:10:46.355Z,3.53
2017-09-06T11:13:13.908Z,3.60
2017-09-06T11:15:41.418Z,3.00
2017-09-06T11:18:08.968Z,2.60
2017-09-06T11:20:37.341Z,2.50
2017-09-06T11:23:04.883Z,3.20
2017-09-06T11:25:32.393Z,3.07
2017-09-06T11:27:59.979Z,3.07
2017-09-06T11:30:27.936Z,2.77
2017-09-06T11:32:55.540Z,2.40
2017-09-06T11:35:23.085Z,2.60
2017-09-06T11:37:50.609Z,2.10
2017-09-06T11:40:18.169Z,3.27
2017-09-06T11:42:45.711Z,2.70
2017-09-06T11:45:13.270Z,2.67
2017-09-06T11:47:40.839Z,2.53
2017-09-06T11:50:08.414Z,2.80
2017-09-06T11:52:35.960Z,2.33
2017-09-06T11:55:03.543Z,2.50
2017-09-06T11:57:31.110Z,2.37
2017-09-06T11:59:59.695Z,2.10
2017-09-06T12:02:27.999Z,2.43
2017-09-06T12:04:55.569Z,2.00
2017-09-06T12:07:23.129Z,2.53
2017-09-06T12:09:50.709Z,2.60
2017-09-06T12:12:18.246Z,2.40
2017-09-06T12:14:45.787Z,2.30
2017-09-06T12:17:13.334Z,3.03
2017-09-06T12:19:40.853Z,2.97
2017-09-06T12:22:08.393Z,2.53
2017-09-06T12:24:35.937Z,1.93
2017-09-06T12:27:03.507Z,3.30
2017-09-06T12:29:31.026Z,2.40
2017-09-06T12:31:59.758Z,3.37
2017-09-06T12:34:27.895Z,2.80
2017-09-06T12:36:55.452Z,2.93
2017-09-06T12:39:22.982Z,2.67
2017-09-06T12:41:50.507Z,3.00
2017-09-06T12:44:18.054Z,3.43
2017-09-06T12:46:45.635Z,3.00
2017-09-06T12:49:13.192Z,2.50
2017-09-06T12:51:40.735Z,2.30
2017-09-06T12:54:08.272Z,2.20
2017-09-06T12:56:35.808Z,2.80
2017-09-06T12:59:03.343Z,3.00
2017-09-06T13:01:30.856Z,1.87
2017-09-06T13:03:58.418Z,2.10
2017-09-06T13:06:25.972Z,2.40
2017-09-06T13:08:53.523Z,1.90
2017-09-06T13:11:21.054Z,2.00
2017-09-06T13:13:48.675Z,2.50
2017-09-06T13:16:16.226Z,2.40
2017-09-06T13:18:43.861Z,2.50
2017-09-06T13:21:11.403Z,2.73
2017-09-06T13:23:38.924Z,2.93
2017-09-06T13:26:06.518Z,2.80
2017-09-06T13:28:34.218Z,3.10
2017-09-06T13:31:01.882Z,2.87
2017-09-06T13:33:30.467Z,2.60
2017-09-06T13:35:59.349Z,2.90
2017-09-06T13:38:26.871Z,3.37
2017-09-06T13:40:54.427Z,3.47
2017-09-06T13:43:21.954Z,3.07
2017-09-06T13:45:49.503Z,2.93
2017-09-06T13:48:17.313Z,3.13
2017-09-06T13:50:44.855Z,2.80
2017-09-06T13:53:12.614Z,3.83
2017-09-06T13:55:40.155Z,3.30
2017-09-06T13:58:07.706Z,2.77
2017-09-06T14:00:35.250Z,3.10
2017-09-06T14:03:02.926Z,3.70
2017-09-06T14:05:30.523Z,3.60
2017-09-06T14:07:59.358Z,4.10
2017-09-06T14:10:26.878Z,3.50
2017-09-06T14:13:06.305Z,4.03
2017-09-06T14:15:33.850Z,3.33
2017-09-06T14:18:01.395Z,2.73
2017-09-06T14:20:30.365Z,3.20
2017-09-06T14:22:58.518Z,3.33
2017-09-06T14:25:26.071Z,2.90
2017-09-06T14:27:53.595Z,3.10
2017-09-06T14:30:21.162Z,2.67
2017-09-06T14:32:48.709Z,3.53
2017-09-06T14:35:16.268Z,3.40
2017-09-06T14:37:43.793Z,3.20
2017-09-06T14:40:11.360Z,2.50
2017-09-06T14:42:38.903Z,3.17
2017-09-06T14:45:06.434Z,3.10
2017-09-06T14:47:34.133Z,3.30
2017-09-06T14:50:01.648Z,2.80
2017-09-06T14:52:30.345Z,2.40
2017-09-06T14:54:58.598Z,3.20
2017-09-06T14:57:26.150Z,3.23
2017-09-06T14:59:53.905Z,3.37
2017-09-06T15:02:21.448Z,3.10
2017-09-06T15:04:48.972Z,4.00
2017-09-06T15:07:16.558Z,3.30
2017-09-06T15:09:46.234Z,2.70
2017-09-06T15:12:13.871Z,3.40
2017-09-06T15:14:41.430Z,3.07
2017-09-06T15:17:08.967Z,3.30
2017-09-06T15:19:36.531Z,3.57
2017-09-06T15:22:04.155Z,3.80
2017-09-06T15:24:31.730Z,3.57
2017-09-06T15:27:00.632Z,3.20
2017-09-06T15:29:28.986Z,3.93
2017-09-06T15:31:56.517Z,4.20
2017-09-06T15:34:24.080Z,5.00
2017-09-06T15:36:51.604Z,5.13
2017-09-06T15:39:19.170Z,4.13
2017-09-06T15:41:46.742Z,5.17
2017-09-06T15:44:14.296Z,5.23
2017-09-06T15:46:41.847Z,4.60
2017-09-06T15:49:09.403Z,4.07
2017-09-06T15:51:37.053Z,4.67
2017-09-06T15:54:04.579Z,5.53
2017-09-06T15:56:32.163Z,5.27
2017-09-06T15:58:59.703Z,5.53
2017-09-06T16:01:27.996Z,5.20
2017-09-06T16:03:55.551Z,5.10
2017-09-06T16:06:23.085Z,5.50
2017-09-06T16:08:50.620Z,4.93
2017-09-06T16:11:18.153Z,4.67
2017-09-06T16:13:47.682Z,5.10
2017-09-06T16:16:16.416Z,5.13
2017-09-06T16:18:44.046Z,4.40
2017-09-06T16:21:11.643Z,4.47
2017-09-06T16:23:39.206Z,4.20
2017-09-06T16:26:06.766Z,4.33
2017-09-06T16:28:34.334Z,4.47
2017-09-06T16:31:03.786Z,4.47
2017-09-06T16:33:31.598Z,3.80
2017-09-06T16:35:59.872Z,4.63
2017-09-06T16:38:28.409Z,3.40
2017-09-06T16:40:56.567Z,3.20
2017-09-06T16:43:24.095Z,3.53
2017-09-06T16:45:51.840Z,3.40
2017-09-06T16:48:19.371Z,3.83
2017-09-06T16:50:47.008Z,3.33
2017-09-06T16:53:14.555Z,4.20
2017-09-06T16:55:42.169Z,4.57
2017-09-06T16:58:09.728Z,4.10
2017-09-06T17:00:37.271Z,3.80
2017-09-06T17:03:04.910Z,3.70
2017-09-06T17:05:32.590Z,3.17
2017-09-06T17:08:00.181Z,3.60
2017-09-06T17:10:27.752Z,3.93
2017-09-06T17:12:55.330Z,4.57
2017-09-06T17:15:23.920Z,4.20
2017-09-06T17:17:51.479Z,4.10
2017-09-06T17:20:19.023Z,4.00
2017-09-06T17:22:46.599Z,4.40
2017-09-06T17:25:14.242Z,4.53
2017-09-06T17:27:41.796Z,3.13
2017-09-06T17:30:09.352Z,3.53
2017-09-06T17:32:36.870Z,3.50
2017-09-06T17:35:04.434Z,3.80
2017-09-06T17:37:32.033Z,3.60
2017-09-06T17:40:00.353Z,4.10
2017-09-06T17:42:28.913Z,2.97
2017-09-06T17:44:56.505Z,3.73
2017-09-06T17:47:24.070Z,4.53
2017-09-06T17:49:51.627Z,3.90
2017-09-06T17:52:19.168Z,3.93
2017-09-06T17:54:46.759Z,5.10
2017-09-06T17:57:14.289Z,3.70
2017-09-06T17:59:41.849Z,3.70
2017-09-06T18:02:09.399Z,4.00
2017-09-06T18:04:37.006Z,4.27
2017-09-06T18:07:04.557Z,4.63
2017-09-06T18:09:32.112Z,5.50
2017-09-06T18:12:00.758Z,4.33
2017-09-06T18:14:30.022Z,4.30
2017-09-06T18:16:58.079Z,5.43
2017-09-06T18:19:25.607Z,4.80
2017-09-06T18:21:53.159Z,4.90
2017-09-06T18:24:20.689Z,3.80
2017-09-06T18:26:48.270Z,3.80
2017-09-06T18:29:15.818Z,5.40
2017-09-06T18:31:43.358Z,4.17
2017-09-06T18:34:10.917Z,4.90
2017-09-06T18:36:38.452Z,3.97
2017-09-06T18:39:06.013Z,4.03
2017-09-06T18:41:33.546Z,4.00
2017-09-06T18:44:01.407Z,3.97
2017-09-06T18:46:30.084Z,4.27
2017-09-06T18:48:58.107Z,4.43
2017-09-06T18:51:25.642Z,4.10
2017-09-06T18:53:53.211Z,4.43
2017-09-06T18:56:20.727Z,3.83
2017-09-06T18:58:48.290Z,3.90
2017-09-06T19:01:15.836Z,4.10
2017-09-06T19:03:43.463Z,4.40
2017-09-06T19:06:11.027Z,3.70
2017-09-06T19:08:38.578Z,3.73
2017-09-06T19:11:06.373Z,3.90
2017-09-06T19:13:33.910Z,4.40
2017-09-06T19:16:01.466Z,3.60
2017-09-06T19:18:30.193Z,4.43
2017-09-06T19:20:58.214Z,5.07
2017-09-06T19:23:25.739Z,4.40
2017-09-06T19:25:53.277Z,3.63
2017-09-06T19:28:20.852Z,4.40
2017-09-06T19:30:48.400Z,4.33
2017-09-06T19:33:15.956Z,4.50
2017-09-06T19:35:43.490Z,3.67
2017-09-06T19:38:11.059Z,4.30
2017-09-06T19:40:38.591Z,4.77
2017-09-06T19:43:06.281Z,3.90
2017-09-06T19:45:33.812Z,4.00
2017-09-06T19:48:01.391Z,3.87
2017-09-06T19:50:29.625Z,4.53
2017-09-06T19:52:57.143Z,4.43
2017-09-06T19:55:24.694Z,3.50
2017-09-06T19:57:52.260Z,3.90
2017-09-06T20:00:19.814Z,4.80
2017-09-06T20:02:47.355Z,4.90
2017-09-06T20:05:14.911Z,5.03
2017-09-06T20:07:42.431Z,4.23
2017-09-06T20:10:10.013Z,4.37
2017-09-06T20:12:37.530Z,4.03
2017-09-06T20:15:05.066Z,4.53
2017-09-06T20:17:32.685Z,4.40
2017-09-06T20:20:00.526Z,5.33
2017-09-06T20:22:29.227Z,4.60
2017-09-06T20:24:56.784Z,4.70
2017-09-06T20:27:24.399Z,3.53
2017-09-06T20:29:51.923Z,4.87
2017-09-06T20:32:19.482Z,4.10
2017-09-06T20:34:47.010Z,3.67
2017-09-06T20:37:14.532Z,4.40
2017-09-06T20:39:42.133Z,5.50
2017-09-06T20:42:09.710Z,4.40
2017-09-06T20:44:37.408Z,4.50
2017-09-06T20:47:04.943Z,4.70
2017-09-06T20:49:32.471Z,4.30
2017-09-06T20:51:59.982Z,3.53
2017-09-06T20:54:28.331Z,4.93
2017-09-06T20:56:55.875Z,4.20
2017-09-06T20:59:23.414Z,4.67
2017-09-06T21:01:50.956Z,4.73
2017-09-06T21:04:18.624Z,4.47
2017-09-06T21:06:46.160Z,5.90
2017-09-06T21:09:13.680Z,5.43
2017-09-06T21:11:41.205Z,4.30
2017-09-06T21:14:08.749Z,4.83
2017-09-06T21:16:36.293Z,5.00
2017-09-06T21:19:03.842Z,4.90
2017-09-06T21:21:31.410Z,4.90
2017-09-06T21:23:59.568Z,4.53
2017-09-06T21:26:27.096Z,4.73
2017-09-06T21:28:54.646Z,5.17
2017-09-06T21:31:22.177Z,4.70
2017-09-06T21:33:50.365Z,5.10
2017-09-06T21:36:17.883Z,4.80
2017-09-06T21:38:45.398Z,3.90
2017-09-06T21:41:12.954Z,4.57
2017-09-06T21:43:40.467Z,5.13
2017-09-06T21:46:08.024Z,4.57
2017-09-06T21:48:35.554Z,4.77
2017-09-06T21:51:03.107Z,3.23
2017-09-06T21:53:30.631Z,4.20
2017-09-06T21:55:58.702Z,3.97
2017-09-06T21:58:26.228Z,3.97
2017-09-06T22:00:53.755Z,4.30
2017-09-06T22:03:21.312Z,3.20
2017-09-06T22:05:48.842Z,4.07
2017-09-06T22:08:16.394Z,3.90
2017-09-06T22:10:43.937Z,5.27
2017-09-06T22:13:11.501Z,4.30
2017-09-06T22:15:39.046Z,4.20
2017-09-06T22:18:06.583Z,3.87
2017-09-06T22:20:34.099Z,3.97
2017-09-06T22:23:01.663Z,3.40
2017-09-06T22:25:30.486Z,4.50
2017-09-06T22:27:59.182Z,4.80
2017-09-06T22:30:26.705Z,4.33
2017-09-06T22:32:54.271Z,5.03
2017-09-06T22:35:21.920Z,4.87
2017-09-06T22:37:49.447Z,3.30
2017-09-06T22:40:17.019Z,5.43
2017-09-06T22:42:44.599Z,3.43
2017-09-06T22:45:12.146Z,5.07
2017-09-06T22:47:39.681Z,4.00
2017-09-06T22:50:07.224Z,4.87
2017-09-06T22:52:34.759Z,3.80
2017-09-06T22:55:02.323Z,3.80
2017-09-06T22:57:29.858Z,4.17
2017-09-06T22:59:57.390Z,4.37
2017-09-06T23:02:24.944Z,4.90
2017-09-06T23:04:52.465Z,3.77
2017-09-06T23:07:19.997Z,3.90
2017-09-06T23:09:47.512Z,4.50
2017-09-06T23:12:15.043Z,4.10
2017-09-06T23:14:42.570Z,3.93
2017-09-06T23:17:10.127Z,4.50
2017-09-06T23:19:37.635Z,3.97
2017-09-06T23:22:05.170Z,5.20
2017-09-06T23:24:32.684Z,3.87
2017-09-06T23:27:00.227Z,4.70
2017-09-06T23:29:28.268Z,4.00
2017-09-06T23:31:55.806Z,4.70
2017-09-06T23:34:23.367Z,5.30
2017-09-06T23:36:50.884Z,4.50
2017-09-06T23:39:18.440Z,4.47
2017-09-06T23:41:45.972Z,5.10
2017-09-06T23:44:13.528Z,5.83
2017-09-06T23:46:41.056Z,4.33
2017-09-06T23:49:08.618Z,5.40
2017-09-06T23:51:36.139Z,5.07
2017-09-06T23:54:03.699Z,5.10
2017-09-06T23:56:31.233Z,4.50
2017-09-06T23:58:59.155Z,4.90
